Weather at Bourail - Poé Airport

Public forecast

Using degrees Celsius for public forecast. Weather courtesy of forecast.io.

Closest aviation weather report (METAR) to Bourail - Poé Airport

Report is more than 6 hours old.

Closest report is Koné Airport, 45.7 nm (84.7 km) NW. Retrieved 2010/10/01 05:30 UTC (12 years ago):

NWWD 010530Z AUTO 05009KT 020V080 9999NDV NCD 30/18 Q1014

Closest aviation forecast (TAF) to Bourail - Poé Airport

Closest forecast is Koné Airport, 45.7 nm (84.7 km) NW. Retrieved 2022/05/22 18:00 UTC (6 hours ago):

TAF NWWD 221700Z 2218/2318 VRB02KT 9999 FEW025 PROB40 2218/2224 SHRA FEW020TCU BECMG 2300/2302 18012KT SHRA TEMPO 2300/2306 18015G25KT